sensor_id;sensor_type;location;lat;lon;timestamp;P1;durP1;ratioP1;P2;durP2;ratioP2
20846;SDS011;10584;50.854;12.902;2022-11-25T00:04:10;17.93;;;6.53;;
20846;SDS011;10584;50.854;12.902;2022-11-25T00:09:36;13.10;;;6.73;;
20846;SDS011;10584;50.854;12.902;2022-11-25T00:14:38;13.23;;;6.23;;
20846;SDS011;10584;50.854;12.902;2022-11-25T00:19:41;17.03;;;6.77;;
20846;SDS011;10584;50.854;12.902;2022-11-25T00:24:44;13.63;;;6.57;;
20846;SDS011;10584;50.854;12.902;2022-11-25T00:29:47;12.23;;;5.47;;
20846;SDS011;10584;50.854;12.902;2022-11-25T00:34:49;13.63;;;5.50;;
20846;SDS011;10584;50.854;12.902;2022-11-25T00:39:52;14.33;;;6.47;;
20846;SDS011;10584;50.854;12.902;2022-11-25T00:44:55;12.33;;;6.27;;
20846;SDS011;10584;50.854;12.902;2022-11-25T00:49:58;14.03;;;6.40;;
20846;SDS011;10584;50.854;12.902;2022-11-25T00:55:01;15.23;;;6.20;;
20846;SDS011;10584;50.854;12.902;2022-11-25T01:00:05;14.80;;;6.17;;
20846;SDS011;10584;50.854;12.902;2022-11-25T01:05:10;18.47;;;6.90;;
20846;SDS011;10584;50.854;12.902;2022-11-25T01:10:30;14.30;;;5.97;;
20846;SDS011;10584;50.854;12.902;2022-11-25T01:15:35;15.90;;;6.10;;
20846;SDS011;10584;50.854;12.902;2022-11-25T01:20:38;12.57;;;6.17;;
20846;SDS011;10584;50.854;12.902;2022-11-25T01:25:40;15.27;;;5.77;;
20846;SDS011;10584;50.854;12.902;2022-11-25T01:30:43;13.10;;;6.07;;
20846;SDS011;10584;50.854;12.902;2022-11-25T01:35:52;12.93;;;6.20;;
20846;SDS011;10584;50.854;12.902;2022-11-25T01:41:15;17.43;;;6.97;;
20846;SDS011;10584;50.854;12.902;2022-11-25T01:46:55;17.27;;;7.03;;
20846;SDS011;10584;50.854;12.902;2022-11-25T01:52:23;12.43;;;5.93;;
20846;SDS011;10584;50.854;12.902;2022-11-25T01:58:00;20.43;;;6.97;;
20846;SDS011;10584;50.854;12.902;2022-11-25T02:03:46;12.00;;;6.30;;
20846;SDS011;10584;50.854;12.902;2022-11-25T02:09:11;15.87;;;6.13;;
20846;SDS011;10584;50.854;12.902;2022-11-25T02:14:44;16.67;;;5.93;;
20846;SDS011;10584;50.854;12.902;2022-11-25T02:20:12;17.97;;;5.30;;
20846;SDS011;10584;50.854;12.902;2022-11-25T02:25:31;14.97;;;5.93;;
20846;SDS011;10584;50.854;12.902;2022-11-25T02:30:45;14.57;;;5.50;;
20846;SDS011;10584;50.854;12.902;2022-11-25T02:35:57;12.67;;;6.00;;
20846;SDS011;10584;50.854;12.902;2022-11-25T02:41:25;12.47;;;5.90;;
20846;SDS011;10584;50.854;12.902;2022-11-25T02:46:37;10.77;;;5.33;;
20846;SDS011;10584;50.854;12.902;2022-11-25T02:52:04;10.03;;;4.83;;
20846;SDS011;10584;50.854;12.902;2022-11-25T02:57:18;10.90;;;5.30;;
20846;SDS011;10584;50.854;12.902;2022-11-25T03:02:45;10.73;;;4.53;;
20846;SDS011;10584;50.854;12.902;2022-11-25T03:08:15;10.67;;;4.67;;
20846;SDS011;10584;50.854;12.902;2022-11-25T03:13:21;11.10;;;4.67;;
20846;SDS011;10584;50.854;12.902;2022-11-25T03:18:53;9.73;;;4.80;;
20846;SDS011;10584;50.854;12.902;2022-11-25T03:24:10;15.23;;;5.13;;
20846;SDS011;10584;50.854;12.902;2022-11-25T03:29:22;11.30;;;4.70;;
20846;SDS011;10584;50.854;12.902;2022-11-25T03:34:25;15.60;;;4.40;;
20846;SDS011;10584;50.854;12.902;2022-11-25T03:39:31;11.70;;;5.10;;
20846;SDS011;10584;50.854;12.902;2022-11-25T03:44:34;15.30;;;5.23;;
20846;SDS011;10584;50.854;12.902;2022-11-25T03:49:38;17.67;;;5.20;;
20846;SDS011;10584;50.854;12.902;2022-11-25T03:54:41;14.60;;;5.00;;
20846;SDS011;10584;50.854;12.902;2022-11-25T03:59:50;10.57;;;4.90;;
20846;SDS011;10584;50.854;12.902;2022-11-25T04:04:57;15.97;;;5.00;;
20846;SDS011;10584;50.854;12.902;2022-11-25T04:10:13;11.93;;;4.67;;
20846;SDS011;10584;50.854;12.902;2022-11-25T04:15:17;14.10;;;5.73;;
20846;SDS011;10584;50.854;12.902;2022-11-25T04:20:25;13.00;;;5.03;;
20846;SDS011;10584;50.854;12.902;2022-11-25T04:25:40;14.43;;;5.03;;
20846;SDS011;10584;50.854;12.902;2022-11-25T04:30:55;8.97;;;4.40;;
20846;SDS011;10584;50.854;12.902;2022-11-25T04:36:22;10.23;;;4.50;;
20846;SDS011;10584;50.854;12.902;2022-11-25T04:41:33;15.00;;;6.03;;
20846;SDS011;10584;50.854;12.902;2022-11-25T04:47:11;12.63;;;5.43;;
20846;SDS011;10584;50.854;12.902;2022-11-25T04:52:28;16.87;;;5.30;;
20846;SDS011;10584;50.854;12.902;2022-11-25T04:57:54;14.57;;;5.37;;
20846;SDS011;10584;50.854;12.902;2022-11-25T05:03:08;14.10;;;6.20;;
20846;SDS011;10584;50.854;12.902;2022-11-25T05:08:17;12.20;;;5.53;;
20846;SDS011;10584;50.854;12.902;2022-11-25T05:13:42;11.93;;;5.10;;
20846;SDS011;10584;50.854;12.902;2022-11-25T05:19:08;10.97;;;4.80;;
20846;SDS011;10584;50.854;12.902;2022-11-25T05:24:27;12.93;;;4.83;;
20846;SDS011;10584;50.854;12.902;2022-11-25T05:29:31;13.87;;;4.93;;
20846;SDS011;10584;50.854;12.902;2022-11-25T05:34:34;11.70;;;4.70;;
20846;SDS011;10584;50.854;12.902;2022-11-25T05:39:37;11.47;;;4.30;;
20846;SDS011;10584;50.854;12.902;2022-11-25T05:45:06;11.73;;;4.00;;
20846;SDS011;10584;50.854;12.902;2022-11-25T05:50:10;18.17;;;4.50;;
20846;SDS011;10584;50.854;12.902;2022-11-25T05:55:15;12.23;;;4.30;;
20846;SDS011;10584;50.854;12.902;2022-11-25T06:00:21;12.57;;;4.47;;
20846;SDS011;10584;50.854;12.902;2022-11-25T06:05:28;13.33;;;4.70;;
20846;SDS011;10584;50.854;12.902;2022-11-25T06:10:49;15.53;;;4.83;;
20846;SDS011;10584;50.854;12.902;2022-11-25T06:16:27;10.90;;;4.60;;
20846;SDS011;10584;50.854;12.902;2022-11-25T06:22:00;13.33;;;5.00;;
20846;SDS011;10584;50.854;12.902;2022-11-25T06:27:21;16.17;;;5.53;;
20846;SDS011;10584;50.854;12.902;2022-11-25T06:32:54;12.70;;;5.20;;
20846;SDS011;10584;50.854;12.902;2022-11-25T06:38:07;9.07;;;4.13;;
20846;SDS011;10584;50.854;12.902;2022-11-25T06:43:30;12.03;;;4.53;;
20846;SDS011;10584;50.854;12.902;2022-11-25T06:49:06;12.80;;;4.57;;
20846;SDS011;10584;50.854;12.902;2022-11-25T06:54:15;12.10;;;3.87;;
20846;SDS011;10584;50.854;12.902;2022-11-25T06:59:25;15.97;;;4.80;;
20846;SDS011;10584;50.854;12.902;2022-11-25T07:04:33;14.40;;;4.90;;
20846;SDS011;10584;50.854;12.902;2022-11-25T07:09:59;19.43;;;4.70;;
20846;SDS011;10584;50.854;12.902;2022-11-25T07:15:02;18.07;;;5.57;;
20846;SDS011;10584;50.854;12.902;2022-11-25T07:20:08;14.03;;;6.27;;
20846;SDS011;10584;50.854;12.902;2022-11-25T07:25:12;14.67;;;5.87;;
20846;SDS011;10584;50.854;12.902;2022-11-25T07:30:15;17.00;;;6.43;;
20846;SDS011;10584;50.854;12.902;2022-11-25T07:35:38;16.07;;;5.60;;
20846;SDS011;10584;50.854;12.902;2022-11-25T07:40:41;13.43;;;5.40;;
20846;SDS011;10584;50.854;12.902;2022-11-25T07:45:44;15.60;;;6.23;;
20846;SDS011;10584;50.854;12.902;2022-11-25T07:50:47;17.03;;;6.10;;
20846;SDS011;10584;50.854;12.902;2022-11-25T07:56:18;18.73;;;6.17;;
20846;SDS011;10584;50.854;12.902;2022-11-25T08:01:42;20.60;;;6.70;;
20846;SDS011;10584;50.854;12.902;2022-11-25T08:07:16;22.30;;;6.37;;
20846;SDS011;10584;50.854;12.902;2022-11-25T08:12:36;20.10;;;6.60;;
20846;SDS011;10584;50.854;12.902;2022-11-25T08:17:39;23.53;;;6.90;;
20846;SDS011;10584;50.854;12.902;2022-11-25T08:22:57;18.50;;;7.37;;
20846;SDS011;10584;50.854;12.902;2022-11-25T08:28:02;19.97;;;7.97;;
20846;SDS011;10584;50.854;12.902;2022-11-25T08:33:22;22.17;;;6.50;;
20846;SDS011;10584;50.854;12.902;2022-11-25T08:39:38;23.10;;;7.83;;
20846;SDS011;10584;50.854;12.902;2022-11-25T08:45:31;20.10;;;7.57;;
20846;SDS011;10584;50.854;12.902;2022-11-25T08:50:58;18.93;;;8.10;;
20846;SDS011;10584;50.854;12.902;2022-11-25T08:56:33;27.97;;;9.43;;
20846;SDS011;10584;50.854;12.902;2022-11-25T09:02:01;19.50;;;8.57;;
20846;SDS011;10584;50.854;12.902;2022-11-25T09:07:17;22.93;;;8.40;;
20846;SDS011;10584;50.854;12.902;2022-11-25T09:12:41;32.10;;;8.63;;
20846;SDS011;10584;50.854;12.902;2022-11-25T09:18:03;18.43;;;6.37;;
20846;SDS011;10584;50.854;12.902;2022-11-25T09:23:16;22.27;;;6.30;;
20846;SDS011;10584;50.854;12.902;2022-11-25T09:28:32;22.67;;;6.83;;
20846;SDS011;10584;50.854;12.902;2022-11-25T09:33:55;19.97;;;7.10;;
20846;SDS011;10584;50.854;12.902;2022-11-25T09:39:04;15.40;;;6.37;;
20846;SDS011;10584;50.854;12.902;2022-11-25T09:44:18;15.93;;;5.27;;
20846;SDS011;10584;50.854;12.902;2022-11-25T09:55:19;11.53;;;4.30;;
20846;SDS011;10584;50.854;12.902;2022-11-25T10:00:59;10.30;;;3.40;;
20846;SDS011;10584;50.854;12.902;2022-11-25T10:12:17;6.93;;;2.27;;
20846;SDS011;10584;50.854;12.902;2022-11-25T10:18:00;8.43;;;2.30;;
20846;SDS011;10584;50.854;12.902;2022-11-25T10:23:29;8.70;;;3.30;;
20846;SDS011;10584;50.854;12.902;2022-11-25T10:28:37;7.60;;;2.23;;
20846;SDS011;10584;50.854;12.902;2022-11-25T10:34:08;5.20;;;2.07;;
20846;SDS011;10584;50.854;12.902;2022-11-25T10:39:29;6.77;;;2.00;;
20846;SDS011;10584;50.854;12.902;2022-11-25T10:44:36;4.57;;;1.63;;
20846;SDS011;10584;50.854;12.902;2022-11-25T10:54:52;6.60;;;2.00;;
20846;SDS011;10584;50.854;12.902;2022-11-25T10:59:59;7.07;;;2.57;;
20846;SDS011;10584;50.854;12.902;2022-11-25T11:10:37;10.20;;;2.57;;
20846;SDS011;10584;50.854;12.902;2022-11-25T11:15:52;7.43;;;2.30;;
20846;SDS011;10584;50.854;12.902;2022-11-25T11:21:37;6.67;;;2.10;;
20846;SDS011;10584;50.854;12.902;2022-11-25T11:27:18;4.73;;;1.80;;
20846;SDS011;10584;50.854;12.902;2022-11-25T11:33:04;4.60;;;1.93;;
20846;SDS011;10584;50.854;12.902;2022-11-25T11:39:00;5.50;;;1.97;;
20846;SDS011;10584;50.854;12.902;2022-11-25T11:44:21;5.27;;;1.93;;
20846;SDS011;10584;50.854;12.902;2022-11-25T12:07:37;3.27;;;1.70;;
20846;SDS011;10584;50.854;12.902;2022-11-25T12:12:52;3.87;;;1.90;;
20846;SDS011;10584;50.854;12.902;2022-11-25T12:18:23;5.57;;;1.90;;
20846;SDS011;10584;50.854;12.902;2022-11-25T12:23:58;5.80;;;2.10;;
20846;SDS011;10584;50.854;12.902;2022-11-25T12:29:08;3.03;;;1.80;;
20846;SDS011;10584;50.854;12.902;2022-11-25T12:34:21;4.97;;;1.77;;
20846;SDS011;10584;50.854;12.902;2022-11-25T12:44:52;3.50;;;1.80;;
20846;SDS011;10584;50.854;12.902;2022-11-25T12:50:12;5.67;;;2.23;;
20846;SDS011;10584;50.854;12.902;2022-11-25T12:55:31;5.47;;;2.30;;
20846;SDS011;10584;50.854;12.902;2022-11-25T13:17:24;5.03;;;2.00;;
20846;SDS011;10584;50.854;12.902;2022-11-25T13:39:30;4.40;;;2.17;;
20846;SDS011;10584;50.854;12.902;2022-11-25T13:44:35;6.77;;;2.50;;
20846;SDS011;10584;50.854;12.902;2022-11-25T13:49:59;5.47;;;2.43;;
20846;SDS011;10584;50.854;12.902;2022-11-25T14:22:21;6.40;;;2.70;;
20846;SDS011;10584;50.854;12.902;2022-11-25T14:28:09;7.47;;;3.20;;
20846;SDS011;10584;50.854;12.902;2022-11-25T14:33:33;6.93;;;3.07;;
20846;SDS011;10584;50.854;12.902;2022-11-25T14:39:07;7.20;;;2.70;;
20846;SDS011;10584;50.854;12.902;2022-11-25T14:44:31;7.13;;;2.90;;
20846;SDS011;10584;50.854;12.902;2022-11-25T14:49:46;8.20;;;3.13;;
20846;SDS011;10584;50.854;12.902;2022-11-25T14:55:22;5.47;;;2.97;;
20846;SDS011;10584;50.854;12.902;2022-11-25T15:00:32;7.43;;;3.00;;
20846;SDS011;10584;50.854;12.902;2022-11-25T15:05:38;8.80;;;3.27;;
20846;SDS011;10584;50.854;12.902;2022-11-25T15:11:15;8.57;;;3.70;;
20846;SDS011;10584;50.854;12.902;2022-11-25T15:16:36;9.07;;;3.50;;
20846;SDS011;10584;50.854;12.902;2022-11-25T15:22:17;9.23;;;3.23;;
20846;SDS011;10584;50.854;12.902;2022-11-25T15:27:43;7.47;;;3.20;;
20846;SDS011;10584;50.854;12.902;2022-11-25T15:33:04;8.47;;;3.60;;
20846;SDS011;10584;50.854;12.902;2022-11-25T15:38:41;8.70;;;3.30;;
20846;SDS011;10584;50.854;12.902;2022-11-25T15:43:59;5.93;;;3.50;;
20846;SDS011;10584;50.854;12.902;2022-11-25T15:49:16;26.97;;;11.03;;
20846;SDS011;10584;50.854;12.902;2022-11-25T15:54:27;22.97;;;10.40;;
20846;SDS011;10584;50.854;12.902;2022-11-25T16:05:07;10.70;;;4.00;;
20846;SDS011;10584;50.854;12.902;2022-11-25T16:10:55;9.20;;;4.13;;
20846;SDS011;10584;50.854;12.902;2022-11-25T16:16:40;10.23;;;4.33;;
20846;SDS011;10584;50.854;12.902;2022-11-25T16:22:12;12.10;;;4.03;;
20846;SDS011;10584;50.854;12.902;2022-11-25T16:27:38;6.60;;;3.27;;
20846;SDS011;10584;50.854;12.902;2022-11-25T16:33:08;10.83;;;4.63;;
20846;SDS011;10584;50.854;12.902;2022-11-25T16:38:27;25.43;;;9.93;;
20846;SDS011;10584;50.854;12.902;2022-11-25T16:43:48;11.43;;;5.30;;
20846;SDS011;10584;50.854;12.902;2022-11-25T16:49:15;11.53;;;5.60;;
20846;SDS011;10584;50.854;12.902;2022-11-25T16:54:25;15.63;;;7.67;;
20846;SDS011;10584;50.854;12.902;2022-11-25T16:59:29;11.83;;;6.40;;
20846;SDS011;10584;50.854;12.902;2022-11-25T17:04:44;13.43;;;5.93;;
20846;SDS011;10584;50.854;12.902;2022-11-25T17:09:55;14.77;;;7.27;;
20846;SDS011;10584;50.854;12.902;2022-11-25T17:15:27;13.90;;;5.93;;
20846;SDS011;10584;50.854;12.902;2022-11-25T17:20:35;13.07;;;5.90;;
20846;SDS011;10584;50.854;12.902;2022-11-25T17:25:38;15.30;;;6.30;;
20846;SDS011;10584;50.854;12.902;2022-11-25T17:30:43;13.60;;;7.70;;
20846;SDS011;10584;50.854;12.902;2022-11-25T17:35:59;16.80;;;7.53;;
20846;SDS011;10584;50.854;12.902;2022-11-25T17:41:23;15.03;;;7.67;;
20846;SDS011;10584;50.854;12.902;2022-11-25T17:46:57;18.80;;;7.40;;
20846;SDS011;10584;50.854;12.902;2022-11-25T17:52:24;15.90;;;7.27;;
20846;SDS011;10584;50.854;12.902;2022-11-25T17:57:50;14.40;;;7.17;;
20846;SDS011;10584;50.854;12.902;2022-11-25T18:03:11;15.57;;;7.13;;
20846;SDS011;10584;50.854;12.902;2022-11-25T18:08:44;16.93;;;8.10;;
20846;SDS011;10584;50.854;12.902;2022-11-25T18:13:49;18.27;;;8.90;;
20846;SDS011;10584;50.854;12.902;2022-11-25T18:19:00;15.90;;;8.37;;
20846;SDS011;10584;50.854;12.902;2022-11-25T18:24:11;27.33;;;13.90;;
20846;SDS011;10584;50.854;12.902;2022-11-25T18:29:23;21.27;;;9.13;;
20846;SDS011;10584;50.854;12.902;2022-11-25T18:34:27;21.03;;;8.47;;
20846;SDS011;10584;50.854;12.902;2022-11-25T18:39:30;19.23;;;9.30;;
20846;SDS011;10584;50.854;12.902;2022-11-25T18:44:33;16.20;;;8.30;;
20846;SDS011;10584;50.854;12.902;2022-11-25T18:49:42;17.70;;;8.93;;
20846;SDS011;10584;50.854;12.902;2022-11-25T18:54:45;20.20;;;9.37;;
20846;SDS011;10584;50.854;12.902;2022-11-25T18:59:51;19.57;;;9.43;;
20846;SDS011;10584;50.854;12.902;2022-11-25T19:05:15;17.53;;;8.60;;
20846;SDS011;10584;50.854;12.902;2022-11-25T19:10:37;19.33;;;9.10;;
20846;SDS011;10584;50.854;12.902;2022-11-25T19:15:43;22.20;;;10.83;;
20846;SDS011;10584;50.854;12.902;2022-11-25T19:21:09;22.53;;;11.83;;
20846;SDS011;10584;50.854;12.902;2022-11-25T19:26:30;22.80;;;10.93;;
20846;SDS011;10584;50.854;12.902;2022-11-25T19:32:07;20.77;;;11.10;;
20846;SDS011;10584;50.854;12.902;2022-11-25T19:37:40;31.83;;;12.23;;
20846;SDS011;10584;50.854;12.902;2022-11-25T19:42:57;18.33;;;9.83;;
20846;SDS011;10584;50.854;12.902;2022-11-25T19:48:03;23.97;;;11.97;;
20846;SDS011;10584;50.854;12.902;2022-11-25T19:53:21;20.07;;;10.77;;
20846;SDS011;10584;50.854;12.902;2022-11-25T19:58:37;20.00;;;10.27;;
20846;SDS011;10584;50.854;12.902;2022-11-25T20:03:58;19.90;;;10.27;;
20846;SDS011;10584;50.854;12.902;2022-11-25T20:09:30;20.77;;;10.67;;
20846;SDS011;10584;50.854;12.902;2022-11-25T20:14:47;17.80;;;9.27;;
20846;SDS011;10584;50.854;12.902;2022-11-25T20:19:53;19.27;;;8.57;;
20846;SDS011;10584;50.854;12.902;2022-11-25T20:24:59;16.83;;;7.97;;
20846;SDS011;10584;50.854;12.902;2022-11-25T20:30:16;13.73;;;8.20;;
20846;SDS011;10584;50.854;12.902;2022-11-25T20:35:21;14.93;;;7.43;;
20846;SDS011;10584;50.854;12.902;2022-11-25T20:40:29;17.87;;;7.50;;
20846;SDS011;10584;50.854;12.902;2022-11-25T20:45:40;15.87;;;7.97;;
20846;SDS011;10584;50.854;12.902;2022-11-25T20:50:43;15.80;;;8.23;;
20846;SDS011;10584;50.854;12.902;2022-11-25T20:55:47;12.33;;;6.83;;
20846;SDS011;10584;50.854;12.902;2022-11-25T21:00:59;14.20;;;7.40;;
20846;SDS011;10584;50.854;12.902;2022-11-25T21:06:26;17.17;;;7.20;;
20846;SDS011;10584;50.854;12.902;2022-11-25T21:11:30;17.20;;;6.43;;
20846;SDS011;10584;50.854;12.902;2022-11-25T21:17:04;15.97;;;6.97;;
20846;SDS011;10584;50.854;12.902;2022-11-25T21:22:27;13.03;;;6.17;;
20846;SDS011;10584;50.854;12.902;2022-11-25T21:27:50;15.00;;;7.00;;
20846;SDS011;10584;50.854;12.902;2022-11-25T21:33:07;13.53;;;7.20;;
20846;SDS011;10584;50.854;12.902;2022-11-25T21:38:25;15.47;;;7.33;;
20846;SDS011;10584;50.854;12.902;2022-11-25T21:43:40;16.90;;;7.10;;
20846;SDS011;10584;50.854;12.902;2022-11-25T21:48:56;15.63;;;6.87;;
20846;SDS011;10584;50.854;12.902;2022-11-25T21:54:05;14.77;;;6.80;;
20846;SDS011;10584;50.854;12.902;2022-11-25T21:59:18;15.00;;;6.47;;
20846;SDS011;10584;50.854;12.902;2022-11-25T22:04:30;17.20;;;7.20;;
20846;SDS011;10584;50.854;12.902;2022-11-25T22:09:50;16.83;;;7.07;;
20846;SDS011;10584;50.854;12.902;2022-11-25T22:14:53;14.40;;;6.90;;
20846;SDS011;10584;50.854;12.902;2022-11-25T22:19:58;14.03;;;7.67;;
20846;SDS011;10584;50.854;12.902;2022-11-25T22:25:01;18.57;;;7.50;;
20846;SDS011;10584;50.854;12.902;2022-11-25T22:30:04;17.47;;;7.43;;
20846;SDS011;10584;50.854;12.902;2022-11-25T22:35:15;18.40;;;6.80;;
20846;SDS011;10584;50.854;12.902;2022-11-25T22:40:19;17.93;;;7.83;;
20846;SDS011;10584;50.854;12.902;2022-11-25T22:45:32;16.37;;;7.70;;
20846;SDS011;10584;50.854;12.902;2022-11-25T22:50:35;16.30;;;7.93;;
20846;SDS011;10584;50.854;12.902;2022-11-25T22:55:38;18.30;;;7.13;;
20846;SDS011;10584;50.854;12.902;2022-11-25T23:00:42;15.90;;;7.03;;
20846;SDS011;10584;50.854;12.902;2022-11-25T23:05:47;19.17;;;7.03;;
20846;SDS011;10584;50.854;12.902;2022-11-25T23:11:12;14.73;;;7.10;;
20846;SDS011;10584;50.854;12.902;2022-11-25T23:16:46;15.07;;;6.50;;
20846;SDS011;10584;50.854;12.902;2022-11-25T23:22:12;13.40;;;6.37;;
20846;SDS011;10584;50.854;12.902;2022-11-25T23:27:36;21.97;;;7.47;;
20846;SDS011;10584;50.854;12.902;2022-11-25T23:32:55;18.40;;;6.77;;
20846;SDS011;10584;50.854;12.902;2022-11-25T23:38:10;16.13;;;6.87;;
20846;SDS011;10584;50.854;12.902;2022-11-25T23:43:30;16.37;;;6.57;;
20846;SDS011;10584;50.854;12.902;2022-11-25T23:48:35;15.53;;;7.20;;
20846;SDS011;10584;50.854;12.902;2022-11-25T23:53:48;16.37;;;7.20;;
20846;SDS011;10584;50.854;12.902;2022-11-25T23:59:08;14.90;;;7.10;;
